createdAt,value
2023-10-10T11:34:11.025Z,14.02
2023-10-10T11:37:24.855Z,11.35
2023-10-10T11:40:31.585Z,11.93
2023-10-10T11:46:04.512Z,8.85
2023-10-10T11:48:49.637Z,11.57
2023-10-10T11:51:38.929Z,14.33
2023-10-10T11:54:26.651Z,11.68
2023-10-10T11:57:16.865Z,11.10
2023-10-10T12:00:26.481Z,17.98
2023-10-10T12:03:13.799Z,13.73
2023-10-10T12:06:01.045Z,14.32
2023-10-10T12:08:50.223Z,14.60
2023-10-10T12:11:40.163Z,13.82
2023-10-10T12:14:30.429Z,13.13
2023-10-10T12:17:15.891Z,14.15
2023-10-10T12:20:01.261Z,17.98
2023-10-10T12:22:46.580Z,13.40
2023-10-10T12:25:31.971Z,11.90
2023-10-10T12:28:19.599Z,17.60
2023-10-10T12:31:05.086Z,19.02
2023-10-10T12:33:51.321Z,16.87
2023-10-10T12:39:28.742Z,13.60
2023-10-10T12:42:13.894Z,15.00
2023-10-10T12:45:02.524Z,17.55
2023-10-10T12:47:49.828Z,23.35
2023-10-10T12:50:36.017Z,20.27
2023-10-10T12:53:22.057Z,21.13
2023-10-10T12:56:12.469Z,14.27
2023-10-10T12:59:23.713Z,13.13
2023-10-10T13:02:16.815Z,14.45
2023-10-10T13:05:02.966Z,13.60
2023-10-10T13:07:48.103Z,15.68
2023-10-10T13:10:38.704Z,19.93
2023-10-10T13:13:44.360Z,11.55
2023-10-10T13:16:49.470Z,30.73
2023-10-10T13:19:34.480Z,32.07
2023-10-10T13:22:22.844Z,15.57
2023-10-10T13:25:11.535Z,9.23
2023-10-10T13:27:56.855Z,12.30
2023-10-10T13:30:47.846Z,8.43
2023-10-10T13:33:33.167Z,11.80
2023-10-10T13:36:18.171Z,10.95
2023-10-10T13:39:08.554Z,9.50
2023-10-10T13:41:56.304Z,10.10
2023-10-10T13:44:44.243Z,10.05
2023-10-10T13:47:30.409Z,10.25
2023-10-10T13:50:42.810Z,11.43
2023-10-10T13:53:28.363Z,10.45
2023-10-10T13:56:18.534Z,13.85
2023-10-10T13:59:04.499Z,11.40
2023-10-10T14:01:53.506Z,10.30
2023-10-10T14:04:49.536Z,14.65
2023-10-10T14:07:35.261Z,9.93
2023-10-10T14:10:22.293Z,9.75
2023-10-10T14:13:34.556Z,11.10
2023-10-10T14:16:21.536Z,11.88
2023-10-10T14:19:06.938Z,16.42
2023-10-10T14:21:56.614Z,16.30
2023-10-10T14:24:43.330Z,9.73
2023-10-10T14:27:29.170Z,13.85
2023-10-10T14:30:24.825Z,11.07
2023-10-10T14:33:10.875Z,14.10
2023-10-10T14:35:57.649Z,11.30
2023-10-10T14:38:46.225Z,10.90
2023-10-10T14:41:31.689Z,12.68
2023-10-10T14:44:16.911Z,11.53
2023-10-10T14:47:06.049Z,11.63
2023-10-10T14:49:57.313Z,11.55
2023-10-10T14:52:49.007Z,9.55
2023-10-10T14:55:41.089Z,13.57
2023-10-10T14:58:26.696Z,16.52
2023-10-10T15:01:18.701Z,14.47
2023-10-10T15:04:06.229Z,14.57
2023-10-10T15:06:55.944Z,16.10
2023-10-10T15:09:41.294Z,16.00
2023-10-10T15:12:26.514Z,10.50
2023-10-10T15:15:12.033Z,16.50
2023-10-10T15:17:57.638Z,18.17
2023-10-10T15:20:47.604Z,16.08
2023-10-10T15:23:32.675Z,18.40
2023-10-10T15:26:21.862Z,17.60
2023-10-10T15:29:12.219Z,17.05
2023-10-10T15:32:00.820Z,21.95
2023-10-10T15:34:46.178Z,13.90
2023-10-10T15:37:32.450Z,15.57
2023-10-10T15:40:23.663Z,16.58
2023-10-10T15:43:29.869Z,13.98
2023-10-10T15:46:18.666Z,15.68
2023-10-10T15:49:17.834Z,14.00
2023-10-10T15:52:16.131Z,15.93
2023-10-10T15:55:06.397Z,12.80
2023-10-10T15:57:55.281Z,16.45
2023-10-10T16:00:40.758Z,19.23
2023-10-10T16:03:26.033Z,19.02
2023-10-10T16:06:11.510Z,14.93
2023-10-10T16:08:59.631Z,18.53
2023-10-10T16:11:46.652Z,21.02
2023-10-10T16:14:38.172Z,21.40
2023-10-10T16:17:23.742Z,21.48
2023-10-10T16:20:09.488Z,17.98
2023-10-10T16:22:54.822Z,22.55
2023-10-10T16:25:40.232Z,19.48
2023-10-10T16:28:25.804Z,19.25
2023-10-10T16:31:16.698Z,32.13
2023-10-10T16:34:03.558Z,43.67
2023-10-10T16:36:49.790Z,50.33
2023-10-10T16:39:35.089Z,59.58
2023-10-10T16:42:20.915Z,85.25
2023-10-10T16:45:11.631Z,91.05
2023-10-10T16:47:58.035Z,70.43
2023-10-10T16:50:43.770Z,76.68
2023-10-10T16:53:32.352Z,69.27
2023-10-10T16:56:22.313Z,73.10
2023-10-10T16:59:07.653Z,67.65
2023-10-10T17:01:53.127Z,68.45
2023-10-10T17:04:38.557Z,67.18
2023-10-10T17:07:27.385Z,52.00
2023-10-10T17:10:15.441Z,48.45
2023-10-10T17:13:01.670Z,34.42
2023-10-10T17:15:48.509Z,36.60
2023-10-10T17:18:34.005Z,31.98
2023-10-10T17:21:19.799Z,39.17
2023-10-10T17:24:05.819Z,41.72
2023-10-10T17:26:51.480Z,59.67
2023-10-10T17:29:37.286Z,75.20
2023-10-10T17:32:24.012Z,69.15
2023-10-10T17:35:10.828Z,73.97
2023-10-10T17:37:55.907Z,50.80
2023-10-10T17:40:41.366Z,29.88
2023-10-10T17:43:27.207Z,25.60
2023-10-10T17:46:16.728Z,27.08
2023-10-10T17:49:02.030Z,20.92
2023-10-10T17:51:47.605Z,19.50
2023-10-10T17:54:32.987Z,19.05
2023-10-10T17:57:23.054Z,19.15
2023-10-10T18:00:15.058Z,18.67
2023-10-10T18:03:09.080Z,16.75
2023-10-10T18:05:55.683Z,21.63
2023-10-10T18:08:41.074Z,18.83
2023-10-10T18:11:27.525Z,34.08
2023-10-10T18:14:13.088Z,39.10
2023-10-10T18:16:58.381Z,41.85
2023-10-10T18:19:43.924Z,30.67
2023-10-10T18:22:32.948Z,28.02
2023-10-10T18:25:19.709Z,31.55
2023-10-10T18:28:09.407Z,32.78
2023-10-10T18:30:54.615Z,29.17
2023-10-10T18:33:40.304Z,27.52
2023-10-10T18:36:25.940Z,32.28
2023-10-10T18:39:15.264Z,32.15
2023-10-10T18:42:01.899Z,26.00
2023-10-10T18:47:32.813Z,26.33
2023-10-10T18:50:21.733Z,21.23
2023-10-10T18:53:07.378Z,24.95
2023-10-10T18:55:56.008Z,25.33
2023-10-10T18:58:41.196Z,29.95
2023-10-10T19:01:26.552Z,20.95
2023-10-10T19:04:14.662Z,20.40
2023-10-10T19:07:00.011Z,28.05
2023-10-10T19:09:45.554Z,23.08
2023-10-10T19:12:30.999Z,27.33
2023-10-10T19:15:17.197Z,26.77
2023-10-10T19:18:05.083Z,21.15
2023-10-10T19:20:50.524Z,22.55
2023-10-10T19:23:37.823Z,16.92
2023-10-10T19:26:26.836Z,17.38
2023-10-10T19:29:12.654Z,14.82
2023-10-10T19:32:00.504Z,13.02
2023-10-10T19:34:46.180Z,14.45
2023-10-10T19:37:33.347Z,15.05
2023-10-10T19:40:22.430Z,13.70
2023-10-10T19:43:07.986Z,13.85
2023-10-10T19:45:53.421Z,13.65
2023-10-10T19:48:41.962Z,16.60
2023-10-10T19:51:27.723Z,16.73
2023-10-10T19:54:14.219Z,19.15
2023-10-10T19:56:59.708Z,13.80
2023-10-10T19:59:46.339Z,14.27
2023-10-10T20:02:31.854Z,14.50
2023-10-10T20:05:21.408Z,15.27
2023-10-10T20:08:08.133Z,15.15
2023-10-10T20:10:54.983Z,13.48
2023-10-10T20:13:40.887Z,16.08
2023-10-10T20:16:27.819Z,14.32
2023-10-10T20:19:13.851Z,12.45
2023-10-10T20:21:59.504Z,12.38
2023-10-10T20:24:46.578Z,16.23
2023-10-10T20:27:32.437Z,15.15
2023-10-10T20:30:19.764Z,14.25
2023-10-10T20:33:06.240Z,14.02
2023-10-10T20:38:42.212Z,12.40
2023-10-10T20:41:28.204Z,17.20
2023-10-10T20:44:13.746Z,25.92
2023-10-10T20:47:02.330Z,25.27
2023-10-10T20:49:47.669Z,18.92
2023-10-10T20:52:33.401Z,26.08
2023-10-10T20:55:18.877Z,36.10
2023-10-10T20:58:05.280Z,41.53
2023-10-10T21:03:35.781Z,15.85
2023-10-10T21:06:21.926Z,16.75
2023-10-10T21:09:07.660Z,15.75
2023-10-10T21:11:53.161Z,14.50
2023-10-10T21:14:38.521Z,15.30
2023-10-10T21:17:24.790Z,15.93
2023-10-10T21:25:46.127Z,14.63
2023-10-10T21:28:31.414Z,14.43
2023-10-10T21:31:16.711Z,14.02
2023-10-10T21:34:02.200Z,18.13
2023-10-10T21:36:47.872Z,17.38
2023-10-10T21:39:33.138Z,17.02
2023-10-10T21:42:20.610Z,17.15
2023-10-10T21:45:07.877Z,17.67
2023-10-10T21:47:58.481Z,18.00
2023-10-10T21:50:43.809Z,22.30
2023-10-10T21:53:29.130Z,17.48
2023-10-10T21:56:14.520Z,17.40
2023-10-10T21:59:01.252Z,18.92
2023-10-10T22:01:54.073Z,20.63
2023-10-10T22:04:39.584Z,17.40
2023-10-10T22:19:29.643Z,28.77
2023-10-10T22:22:15.066Z,23.40
2023-10-10T22:25:01.220Z,20.10
2023-10-10T22:27:48.116Z,18.80
2023-10-10T22:30:38.574Z,21.55
2023-10-10T22:33:24.478Z,23.23
2023-10-10T22:36:16.249Z,23.77
2023-10-10T22:39:07.989Z,22.95
2023-10-10T22:41:53.625Z,22.77
2023-10-10T22:44:39.276Z,26.77
2023-10-10T22:47:26.005Z,22.95
2023-10-10T22:50:16.259Z,23.55
2023-10-10T22:53:04.164Z,20.85
2023-10-10T22:55:49.567Z,22.02
2023-10-10T22:58:35.602Z,26.85
2023-10-10T23:01:23.431Z,25.38
2023-10-10T23:04:09.224Z,22.42
2023-10-10T23:06:54.535Z,23.08
2023-10-10T23:09:42.798Z,27.23
2023-10-10T23:12:28.584Z,24.67
2023-10-10T23:15:14.181Z,21.60
2023-10-10T23:18:01.495Z,21.45
2023-10-10T23:20:47.726Z,23.08
2023-10-10T23:23:33.493Z,22.20
2023-10-10T23:26:20.788Z,24.52
2023-10-10T23:29:07.988Z,22.90
2023-10-10T23:31:53.470Z,25.52
2023-10-10T23:34:38.918Z,24.48
2023-10-10T23:37:24.923Z,29.88
2023-10-10T23:40:18.191Z,23.63
2023-10-10T23:43:04.692Z,28.65
2023-10-10T23:48:44.090Z,27.63
2023-10-10T23:51:29.568Z,29.88
2023-10-10T23:54:15.659Z,31.30
2023-10-10T23:57:05.176Z,29.67
2023-10-10T23:59:50.910Z,28.02
